createdAt,value
2023-04-07T00:00:44.644Z,8.09
2023-04-07T00:01:44.626Z,8.09
2023-04-07T00:02:44.900Z,8.07
2023-04-07T00:03:44.679Z,8.09
2023-04-07T00:04:44.607Z,8.09
2023-04-07T00:05:44.537Z,8.09
2023-04-07T00:06:44.570Z,8.09
2023-04-07T00:07:53.007Z,8.09
2023-04-07T00:08:45.516Z,8.09
2023-04-07T00:09:44.454Z,8.06
2023-04-07T00:10:44.452Z,8.06
2023-04-07T00:11:44.471Z,8.07
2023-04-07T00:12:44.446Z,8.07
2023-04-07T00:13:44.443Z,8.07
2023-04-07T00:14:44.459Z,8.09
2023-04-07T00:15:44.422Z,8.09
2023-04-07T00:16:44.411Z,8.09
2023-04-07T00:17:44.505Z,8.09
2023-04-07T00:18:44.389Z,8.09
2023-04-07T00:19:44.382Z,8.09
2023-04-07T00:20:44.368Z,8.10
2023-04-07T00:21:44.391Z,8.10
2023-04-07T00:22:44.338Z,8.10
2023-04-07T00:23:44.329Z,8.12
2023-04-07T00:24:44.298Z,8.10
2023-04-07T00:25:44.310Z,8.10
2023-04-07T00:26:44.325Z,8.10
2023-04-07T00:27:44.258Z,8.12
2023-04-07T00:28:44.242Z,8.12
2023-04-07T00:29:44.208Z,8.13
2023-04-07T00:30:44.238Z,8.13
2023-04-07T00:31:44.252Z,8.13
2023-04-07T00:32:45.526Z,8.13
2023-04-07T00:33:44.174Z,8.12
2023-04-07T00:34:44.179Z,8.12
2023-04-07T00:35:44.174Z,8.12
2023-04-07T00:36:44.136Z,8.13
2023-04-07T00:37:44.171Z,8.13
2023-04-07T00:38:44.103Z,8.14
2023-04-07T00:39:44.110Z,8.13
2023-04-07T00:40:44.063Z,8.14
2023-04-07T00:41:44.108Z,8.13
2023-04-07T00:42:44.032Z,8.13
2023-04-07T00:43:44.135Z,8.13
2023-04-07T00:44:44.060Z,8.13
2023-04-07T00:45:44.026Z,8.14
2023-04-07T00:46:44.055Z,8.13
2023-04-07T00:47:44.094Z,8.13
2023-04-07T00:48:43.951Z,8.13
2023-04-07T00:49:43.948Z,8.12
2023-04-07T00:50:43.942Z,8.12
2023-04-07T00:51:43.940Z,8.09
2023-04-07T00:52:43.944Z,8.10
2023-04-07T00:53:43.905Z,8.12
2023-04-07T00:54:43.868Z,8.13
2023-04-07T00:55:43.984Z,8.13
2023-04-07T00:56:43.970Z,8.13
2023-04-07T00:57:43.951Z,8.13
2023-04-07T00:58:43.823Z,8.13
2023-04-07T00:59:43.812Z,8.13
2023-04-07T01:00:43.793Z,8.13
2023-04-07T01:01:43.908Z,8.13
2023-04-07T01:02:44.040Z,8.10
2023-04-07T01:03:43.971Z,8.13
2023-04-07T01:04:43.886Z,8.13
2023-04-07T01:05:43.739Z,8.12
2023-04-07T01:06:43.758Z,8.14
2023-04-07T01:07:43.741Z,8.13
2023-04-07T01:08:43.683Z,8.14
2023-04-07T01:09:43.709Z,8.14
2023-04-07T01:10:43.701Z,8.14
2023-04-07T01:11:43.725Z,8.14
2023-04-07T01:12:43.696Z,8.13
2023-04-07T01:13:43.645Z,8.13
2023-04-07T01:14:43.632Z,8.13
2023-04-07T01:15:43.653Z,8.13
2023-04-07T01:16:43.664Z,8.13
2023-04-07T01:17:43.719Z,8.10
2023-04-07T01:18:43.570Z,8.12
2023-04-07T01:19:43.596Z,8.12
2023-04-07T01:20:43.559Z,8.13
2023-04-07T01:21:43.601Z,8.13
2023-04-07T01:22:43.517Z,8.14
2023-04-07T01:23:43.507Z,8.14
2023-04-07T01:24:43.507Z,8.14
2023-04-07T01:25:43.498Z,8.17
2023-04-07T01:26:43.522Z,8.14
2023-04-07T01:27:43.469Z,8.14
2023-04-07T01:28:43.480Z,8.17
2023-04-07T01:29:43.445Z,8.17
2023-04-07T01:30:43.411Z,8.18
2023-04-07T01:31:43.464Z,8.18
2023-04-07T01:32:43.424Z,8.20
2023-04-07T01:33:43.390Z,8.20
2023-04-07T01:34:43.388Z,8.20
2023-04-07T01:35:43.397Z,8.21
2023-04-07T01:36:43.419Z,8.21
2023-04-07T01:37:43.364Z,8.21
2023-04-07T01:38:43.307Z,8.21
2023-04-07T01:39:43.326Z,8.22
2023-04-07T01:40:43.314Z,8.21
2023-04-07T01:41:43.329Z,8.22
2023-04-07T01:42:43.246Z,8.22
2023-04-07T01:43:44.438Z,8.22
2023-04-07T01:44:43.240Z,8.25
2023-04-07T01:45:43.242Z,8.24
2023-04-07T01:46:43.271Z,8.24
2023-04-07T01:47:43.286Z,8.24
2023-04-07T01:48:43.192Z,8.24
2023-04-07T01:49:43.211Z,8.22
2023-04-07T01:50:43.169Z,8.25
2023-04-07T01:51:43.199Z,8.25
2023-04-07T01:52:43.136Z,8.25
2023-04-07T01:53:43.114Z,8.27
2023-04-07T01:54:43.091Z,8.27
2023-04-07T01:55:43.120Z,8.25
2023-04-07T01:56:43.121Z,8.25
2023-04-07T01:57:43.093Z,8.27
2023-04-07T01:58:43.044Z,8.27
2023-04-07T01:59:43.083Z,8.28
2023-04-07T02:00:43.088Z,8.28
2023-04-07T02:01:43.225Z,8.28
2023-04-07T02:02:43.126Z,8.29
2023-04-07T02:03:43.154Z,8.28
2023-04-07T02:04:42.974Z,8.29
2023-04-07T02:05:42.964Z,8.29
2023-04-07T02:06:42.972Z,8.31
2023-04-07T02:07:42.965Z,8.31
2023-04-07T02:08:42.933Z,8.29
2023-04-07T02:09:42.932Z,8.31
2023-04-07T02:10:42.931Z,8.31
2023-04-07T02:11:42.962Z,8.29
2023-04-07T02:12:42.902Z,8.31
2023-04-07T02:13:42.893Z,8.31
2023-04-07T02:14:42.868Z,8.32
2023-04-07T02:15:42.837Z,8.31
2023-04-07T02:16:42.888Z,8.32
2023-04-07T02:17:42.869Z,8.32
2023-04-07T02:18:42.816Z,8.32
2023-04-07T02:19:42.822Z,8.32
2023-04-07T02:20:42.819Z,8.36
2023-04-07T02:21:42.798Z,8.39
2023-04-07T02:22:42.753Z,8.39
2023-04-07T02:23:42.762Z,8.40
2023-04-07T02:24:42.731Z,8.39
2023-04-07T02:25:42.721Z,8.40
2023-04-07T02:26:42.739Z,8.43
2023-04-07T02:27:42.709Z,8.42
2023-04-07T02:28:42.692Z,8.46
2023-04-07T02:29:42.689Z,8.46
2023-04-07T02:30:42.649Z,8.47
2023-04-07T02:31:42.785Z,8.49
2023-04-07T02:32:42.660Z,8.50
2023-04-07T02:33:42.600Z,8.52
2023-04-07T02:34:42.605Z,8.54
2023-04-07T02:35:42.592Z,8.52
2023-04-07T02:36:42.613Z,8.52
2023-04-07T02:37:42.610Z,8.50
2023-04-07T02:38:42.515Z,8.54
2023-04-07T02:39:42.575Z,8.55
2023-04-07T02:40:51.828Z,8.52
2023-04-07T02:41:42.551Z,8.54
2023-04-07T02:42:44.307Z,8.55
2023-04-07T02:43:44.213Z,8.57
2023-04-07T02:44:42.468Z,8.55
2023-04-07T02:45:42.495Z,8.55
2023-04-07T02:46:42.543Z,8.58
2023-04-07T02:47:42.443Z,8.55
2023-04-07T02:48:42.417Z,8.55
2023-04-07T02:49:42.431Z,8.57
2023-04-07T02:50:42.409Z,8.55
2023-04-07T02:51:42.363Z,8.57
2023-04-07T02:52:42.385Z,8.57
2023-04-07T02:53:42.363Z,8.57
2023-04-07T02:54:42.307Z,8.57
2023-04-07T02:55:42.330Z,8.55
2023-04-07T02:56:42.324Z,8.55
2023-04-07T02:57:42.289Z,8.57
2023-04-07T02:58:42.261Z,8.57
2023-04-07T02:59:42.302Z,8.55
2023-04-07T03:00:42.275Z,8.55
2023-04-07T03:01:42.363Z,8.54
2023-04-07T03:02:42.366Z,8.54
2023-04-07T03:03:42.499Z,8.54
2023-04-07T03:04:42.191Z,8.55
2023-04-07T03:05:42.202Z,8.55
2023-04-07T03:06:42.183Z,8.55
2023-04-07T03:07:42.173Z,8.55
2023-04-07T03:08:42.133Z,8.55
2023-04-07T03:09:42.149Z,8.54
2023-04-07T03:10:42.155Z,8.55
2023-04-07T03:11:42.158Z,8.54
2023-04-07T03:12:42.092Z,8.55
2023-04-07T03:13:42.131Z,8.57
2023-04-07T03:14:42.065Z,8.55
2023-04-07T03:15:42.055Z,8.55
2023-04-07T03:16:42.093Z,8.55
2023-04-07T03:17:42.153Z,8.57
2023-04-07T03:18:42.016Z,8.54
2023-04-07T03:19:42.009Z,8.54
2023-04-07T03:20:41.991Z,8.55
2023-04-07T03:21:41.963Z,8.57
2023-04-07T03:22:41.989Z,8.57
2023-04-07T03:23:42.035Z,8.55
2023-04-07T03:24:41.945Z,8.54
2023-04-07T03:25:41.976Z,8.54
2023-04-07T03:26:41.908Z,8.55
2023-04-07T03:27:41.923Z,8.54
2023-04-07T03:28:41.910Z,8.52
2023-04-07T03:29:41.910Z,8.50
2023-04-07T03:30:41.896Z,8.54
2023-04-07T03:31:41.896Z,8.52
2023-04-07T03:32:41.876Z,8.52
2023-04-07T03:33:41.828Z,8.54
2023-04-07T03:34:41.814Z,8.52
2023-04-07T03:35:41.830Z,8.55
2023-04-07T03:36:41.836Z,8.54
2023-04-07T03:37:41.809Z,8.52
2023-04-07T03:38:41.747Z,8.52
2023-04-07T03:39:41.760Z,8.52
2023-04-07T03:40:41.735Z,8.50
2023-04-07T03:41:41.744Z,8.50
2023-04-07T03:42:41.701Z,8.50
2023-04-07T03:43:41.720Z,8.50
2023-04-07T03:44:41.669Z,8.50
2023-04-07T03:45:41.698Z,8.49
2023-04-07T03:46:41.852Z,8.49
2023-04-07T03:47:41.707Z,8.47
2023-04-07T03:48:41.638Z,8.49
2023-04-07T03:49:41.598Z,8.47
2023-04-07T03:50:41.605Z,8.49
2023-04-07T03:51:41.640Z,8.46
2023-04-07T03:52:41.580Z,8.47
2023-04-07T03:53:41.585Z,8.47
2023-04-07T03:54:41.545Z,8.46
2023-04-07T03:55:41.555Z,8.49
2023-04-07T03:56:41.557Z,8.47
2023-04-07T03:57:41.522Z,8.47
2023-04-07T03:58:41.476Z,8.46
2023-04-07T03:59:41.662Z,8.47
2023-04-07T04:00:41.490Z,8.47
2023-04-07T04:01:41.492Z,8.49
2023-04-07T04:02:41.545Z,8.47
2023-04-07T04:03:41.547Z,8.49
2023-04-07T04:04:41.446Z,8.49
2023-04-07T04:05:41.419Z,8.47
2023-04-07T04:06:41.386Z,8.49
2023-04-07T04:07:41.415Z,8.49
2023-04-07T04:08:41.373Z,8.50
2023-04-07T04:09:41.362Z,8.49
2023-04-07T04:10:41.358Z,8.47
2023-04-07T04:11:41.332Z,8.50
2023-04-07T04:12:41.335Z,8.47
2023-04-07T04:13:41.346Z,8.49
2023-04-07T04:14:41.291Z,8.47
2023-04-07T04:15:41.330Z,8.47
2023-04-07T04:16:41.269Z,8.45
2023-04-07T04:17:41.267Z,8.46
2023-04-07T04:18:41.214Z,8.45
2023-04-07T04:19:41.258Z,8.43
2023-04-07T04:20:41.285Z,8.43
2023-04-07T04:21:41.278Z,8.43
2023-04-07T04:22:41.194Z,8.43
2023-04-07T04:23:41.198Z,8.45
2023-04-07T04:24:41.159Z,8.43
2023-04-07T04:25:41.165Z,8.43
2023-04-07T04:26:41.121Z,8.40
2023-04-07T04:27:41.220Z,8.40
2023-04-07T04:28:41.140Z,8.39
2023-04-07T04:29:41.087Z,8.40
2023-04-07T04:30:41.111Z,8.40
2023-04-07T04:31:41.275Z,8.39
2023-04-07T04:32:41.140Z,8.37
2023-04-07T04:33:41.023Z,8.37
2023-04-07T04:34:41.019Z,8.37
2023-04-07T04:35:41.030Z,8.39
2023-04-07T04:36:41.115Z,8.39
2023-04-07T04:37:41.170Z,8.39
2023-04-07T04:38:40.995Z,8.37
2023-04-07T04:39:40.996Z,8.36
2023-04-07T04:40:40.996Z,8.37
2023-04-07T04:41:40.922Z,8.37
2023-04-07T04:42:41.168Z,8.37
2023-04-07T04:43:40.961Z,8.36
2023-04-07T04:44:40.880Z,8.34
2023-04-07T04:45:40.895Z,8.36
2023-04-07T04:46:40.982Z,8.36
2023-04-07T04:47:40.918Z,8.36
2023-04-07T04:48:41.083Z,8.32
2023-04-07T04:49:40.896Z,8.36
2023-04-07T04:50:40.814Z,8.34
2023-04-07T04:51:40.969Z,8.34
2023-04-07T04:52:40.900Z,8.34
2023-04-07T04:53:40.806Z,8.34
2023-04-07T04:54:40.795Z,8.32
2023-04-07T04:55:40.758Z,8.31
2023-04-07T04:56:40.798Z,8.29
2023-04-07T04:57:40.926Z,8.28
2023-04-07T04:58:40.784Z,8.28
2023-04-07T04:59:40.731Z,8.28
2023-04-07T05:00:40.747Z,8.28
2023-04-07T05:01:41.760Z,8.27
2023-04-07T05:02:40.919Z,8.28
2023-04-07T05:03:40.944Z,8.25
2023-04-07T05:04:40.779Z,8.27
2023-04-07T05:05:40.921Z,8.25
2023-04-07T05:06:40.638Z,8.25
2023-04-07T05:07:40.598Z,8.25
2023-04-07T05:08:40.618Z,8.25
2023-04-07T05:09:40.582Z,8.27
2023-04-07T05:10:40.554Z,8.24
2023-04-07T05:11:40.589Z,8.24
2023-04-07T05:12:40.554Z,8.22
2023-04-07T05:13:40.518Z,8.22
2023-04-07T05:14:40.513Z,8.24
2023-04-07T05:15:40.519Z,8.22
2023-04-07T05:16:40.553Z,8.22
2023-04-07T05:17:40.483Z,8.24
2023-04-07T05:18:40.470Z,8.24
2023-04-07T05:19:40.435Z,8.24
2023-04-07T05:20:40.460Z,8.24
2023-04-07T05:21:40.423Z,8.22
2023-04-07T05:22:40.432Z,8.22
2023-04-07T05:23:40.365Z,8.22
2023-04-07T05:24:40.376Z,8.22
2023-04-07T05:25:40.340Z,8.21
2023-04-07T05:26:40.393Z,8.21
2023-04-07T05:27:40.349Z,8.21
2023-04-07T05:28:40.340Z,8.24
2023-04-07T05:29:40.293Z,8.22
2023-04-07T05:30:40.308Z,8.22
2023-04-07T05:31:40.381Z,8.22
2023-04-07T05:32:40.317Z,8.22
2023-04-07T05:33:40.249Z,8.21
2023-04-07T05:34:40.266Z,8.20
2023-04-07T05:35:40.295Z,8.20
2023-04-07T05:36:40.232Z,8.21
2023-04-07T05:37:40.216Z,8.21
2023-04-07T05:38:40.193Z,8.21
2023-04-07T05:39:40.177Z,8.21
2023-04-07T05:40:40.161Z,8.21
2023-04-07T05:41:40.150Z,8.20
2023-04-07T05:42:40.141Z,8.20
2023-04-07T05:43:40.141Z,8.17
2023-04-07T05:44:40.148Z,8.17
2023-04-07T05:45:40.153Z,8.14
2023-04-07T05:46:40.132Z,8.18
2023-04-07T05:47:40.090Z,8.18
2023-04-07T05:48:40.094Z,8.17
2023-04-07T05:49:40.057Z,8.18
2023-04-07T05:50:40.080Z,8.20
2023-04-07T05:51:40.063Z,8.20
2023-04-07T05:52:40.047Z,8.20
2023-04-07T05:53:40.013Z,8.20
2023-04-07T05:54:40.009Z,8.20
2023-04-07T05:55:39.982Z,8.21
2023-04-07T05:56:40.018Z,8.20
2023-04-07T05:57:39.956Z,8.21
2023-04-07T05:58:39.958Z,8.21
2023-04-07T05:59:39.902Z,8.20
2023-04-07T06:00:39.895Z,8.20
2023-04-07T06:01:40.033Z,8.20
2023-04-07T06:02:40.053Z,8.20
2023-04-07T06:03:39.936Z,8.20
2023-04-07T06:04:39.989Z,8.18
2023-04-07T06:05:39.904Z,8.17
2023-04-07T06:06:39.879Z,8.17
2023-04-07T06:07:39.802Z,8.17
2023-04-07T06:08:39.793Z,8.18
2023-04-07T06:09:39.766Z,8.17
2023-04-07T06:10:39.929Z,8.17
2023-04-07T06:11:40.093Z,8.18
2023-04-07T06:12:39.770Z,8.18
2023-04-07T06:13:39.746Z,8.18
2023-04-07T06:14:39.752Z,8.18
2023-04-07T06:15:39.704Z,8.18
2023-04-07T06:16:39.747Z,8.18
2023-04-07T06:17:39.723Z,8.18
2023-04-07T06:18:39.668Z,8.18
2023-04-07T06:19:39.652Z,8.17
2023-04-07T06:20:39.680Z,8.17
2023-04-07T06:21:39.634Z,8.18
2023-04-07T06:22:39.644Z,8.17
2023-04-07T06:23:39.606Z,8.17
2023-04-07T06:24:39.587Z,8.17
2023-04-07T06:25:39.563Z,8.17
2023-04-07T06:26:39.575Z,8.17
2023-04-07T06:27:39.568Z,8.17
2023-04-07T06:28:39.542Z,8.14
2023-04-07T06:29:39.524Z,8.17
2023-04-07T06:30:39.573Z,8.14
2023-04-07T06:31:39.576Z,8.14
2023-04-07T06:32:39.510Z,8.14
2023-04-07T06:33:39.646Z,8.14
2023-04-07T06:34:39.491Z,8.12
2023-04-07T06:35:39.561Z,8.12
2023-04-07T06:36:39.667Z,8.12
2023-04-07T06:37:39.458Z,8.13
2023-04-07T06:38:39.557Z,8.13
2023-04-07T06:39:40.286Z,8.14
2023-04-07T06:40:39.425Z,8.14
2023-04-07T06:41:39.412Z,8.17
2023-04-07T06:42:39.398Z,8.14
2023-04-07T06:43:39.345Z,8.17
2023-04-07T06:44:39.355Z,8.17
2023-04-07T06:45:39.333Z,8.18
2023-04-07T06:46:39.379Z,8.20
2023-04-07T06:47:39.340Z,8.20
2023-04-07T06:48:39.276Z,8.14
2023-04-07T06:49:39.374Z,8.17
2023-04-07T06:50:39.278Z,8.18
2023-04-07T06:51:39.280Z,8.20
2023-04-07T06:52:39.266Z,8.20
2023-04-07T06:53:39.537Z,8.20
2023-04-07T06:54:39.240Z,8.20
2023-04-07T06:55:39.201Z,8.20
2023-04-07T06:56:39.221Z,8.18
2023-04-07T06:57:39.174Z,8.18
2023-04-07T06:58:39.401Z,8.18
2023-04-07T06:59:39.457Z,8.20
2023-04-07T07:00:39.188Z,8.18
2023-04-07T07:01:39.243Z,8.21
2023-04-07T07:02:39.399Z,8.20
2023-04-07T07:03:39.170Z,8.20
2023-04-07T07:04:39.064Z,8.20
2023-04-07T07:05:39.050Z,8.21
2023-04-07T07:06:39.078Z,8.22
2023-04-07T07:07:39.054Z,8.20
2023-04-07T07:08:39.050Z,8.21
2023-04-07T07:09:39.025Z,8.21
2023-04-07T07:10:39.112Z,8.20
2023-04-07T07:11:39.139Z,8.21
2023-04-07T07:12:38.986Z,8.21
2023-04-07T07:13:38.941Z,8.21
2023-04-07T07:14:38.956Z,8.21
2023-04-07T07:15:38.941Z,8.22
2023-04-07T07:16:38.952Z,8.22
2023-04-07T07:17:38.957Z,8.22
2023-04-07T07:18:38.940Z,8.25
2023-04-07T07:19:38.880Z,8.28
2023-04-07T07:20:38.888Z,8.27
2023-04-07T07:21:38.853Z,8.24
2023-04-07T07:22:38.857Z,8.22
2023-04-07T07:23:38.834Z,8.25
2023-04-07T07:24:38.814Z,8.28
2023-04-07T07:25:38.805Z,8.27
2023-04-07T07:26:38.832Z,8.28
2023-04-07T07:27:38.787Z,8.31
2023-04-07T07:28:38.800Z,8.28
2023-04-07T07:29:38.761Z,8.27
2023-04-07T07:30:38.727Z,8.28
2023-04-07T07:31:38.797Z,8.28
2023-04-07T07:32:38.768Z,8.28
2023-04-07T07:33:38.692Z,8.29
2023-04-07T07:34:38.710Z,8.28
2023-04-07T07:35:38.654Z,8.31
2023-04-07T07:36:38.690Z,8.32
2023-04-07T07:37:38.625Z,8.32
2023-04-07T07:38:38.662Z,8.34
2023-04-07T07:39:38.621Z,8.34
2023-04-07T07:40:38.630Z,8.34
2023-04-07T07:41:38.713Z,8.34
2023-04-07T07:42:38.602Z,8.32
2023-04-07T07:43:38.595Z,8.34
2023-04-07T07:44:38.605Z,8.34
2023-04-07T07:45:38.572Z,8.34
2023-04-07T07:46:38.626Z,8.36
2023-04-07T07:47:38.532Z,8.36
2023-04-07T07:48:38.779Z,8.36
2023-04-07T07:49:38.544Z,8.36
2023-04-07T07:50:38.595Z,8.37
2023-04-07T07:51:38.499Z,8.42
2023-04-07T07:52:38.486Z,8.45
2023-04-07T07:53:38.416Z,8.46
2023-04-07T07:54:38.455Z,8.47
2023-04-07T07:55:38.434Z,8.46
2023-04-07T07:56:38.460Z,8.49
2023-04-07T07:57:38.415Z,8.46
2023-04-07T07:58:38.408Z,8.43
2023-04-07T07:59:38.340Z,8.43
2023-04-07T08:00:38.351Z,8.45
2023-04-07T08:01:38.400Z,8.46
2023-04-07T08:02:38.418Z,8.46
2023-04-07T08:03:38.418Z,8.46
2023-04-07T08:04:38.396Z,8.47
2023-04-07T08:05:38.279Z,8.47
2023-04-07T08:06:38.329Z,8.47
2023-04-07T08:07:38.276Z,8.46
2023-04-07T08:08:38.274Z,8.46
2023-04-07T08:09:38.213Z,8.49
2023-04-07T08:10:38.242Z,8.47
2023-04-07T08:11:38.206Z,8.46
2023-04-07T08:12:38.211Z,8.46
2023-04-07T08:13:38.231Z,8.47
2023-04-07T08:14:38.203Z,8.47
2023-04-07T08:15:38.139Z,8.47
2023-04-07T08:16:38.324Z,8.49
2023-04-07T08:17:38.149Z,8.54
2023-04-07T08:18:38.142Z,8.55
2023-04-07T08:19:38.120Z,8.57
2023-04-07T08:20:38.077Z,8.60
2023-04-07T08:21:38.103Z,8.61
2023-04-07T08:22:38.080Z,8.63
2023-04-07T08:23:38.034Z,8.61
2023-04-07T08:24:38.074Z,8.61
2023-04-07T08:25:38.022Z,8.63
2023-04-07T08:26:38.043Z,8.61
2023-04-07T08:27:38.007Z,8.60
2023-04-07T08:28:37.998Z,8.61
2023-04-07T08:29:37.993Z,8.61
2023-04-07T08:30:37.990Z,8.63
2023-04-07T08:31:38.058Z,8.61
2023-04-07T08:32:38.042Z,8.60
2023-04-07T08:33:37.972Z,8.60
2023-04-07T08:34:37.895Z,8.61
2023-04-07T08:35:37.896Z,8.63
2023-04-07T08:36:37.928Z,8.64
2023-04-07T08:37:37.867Z,8.64
2023-04-07T08:38:37.881Z,8.67
2023-04-07T08:39:37.816Z,8.65
2023-04-07T08:40:37.815Z,8.65
2023-04-07T08:41:37.850Z,8.65
2023-04-07T08:42:37.844Z,8.67
2023-04-07T08:43:37.814Z,8.68
2023-04-07T08:44:37.785Z,8.70
2023-04-07T08:45:37.751Z,8.71
2023-04-07T08:46:37.776Z,8.73
2023-04-07T08:47:37.876Z,8.73
2023-04-07T08:48:37.704Z,8.76
2023-04-07T08:49:37.722Z,8.79
2023-04-07T08:50:37.700Z,8.78
2023-04-07T08:51:37.708Z,8.76
2023-04-07T08:52:37.663Z,8.78
2023-04-07T08:53:37.686Z,8.79
2023-04-07T08:54:37.616Z,8.82
2023-04-07T08:55:37.654Z,8.82
2023-04-07T08:56:37.633Z,8.82
2023-04-07T08:57:37.629Z,8.80
2023-04-07T08:58:37.608Z,8.80
2023-04-07T08:59:37.575Z,8.80
2023-04-07T09:00:37.564Z,8.85
2023-04-07T09:01:37.694Z,8.86
2023-04-07T09:02:37.674Z,8.88
2023-04-07T09:03:37.642Z,8.91
2023-04-07T09:04:37.527Z,8.89
2023-04-07T09:05:37.575Z,8.91
2023-04-07T09:06:37.517Z,8.91
2023-04-07T09:07:37.515Z,8.89
2023-04-07T09:08:38.177Z,8.88
2023-04-07T09:09:37.434Z,8.86
2023-04-07T09:10:37.432Z,8.85
2023-04-07T09:11:37.467Z,8.86
2023-04-07T09:12:37.402Z,8.86
2023-04-07T09:13:37.444Z,8.83
2023-04-07T09:14:37.405Z,8.85
2023-04-07T09:15:38.656Z,8.89
2023-04-07T09:16:37.404Z,8.93
2023-04-07T09:17:37.449Z,8.91
2023-04-07T09:18:37.311Z,8.91
2023-04-07T09:19:37.304Z,8.93
2023-04-07T09:20:37.290Z,8.96
2023-04-07T09:21:37.323Z,8.97
2023-04-07T09:22:37.289Z,8.93
2023-04-07T09:23:37.251Z,8.91
2023-04-07T09:24:37.239Z,8.93
2023-04-07T09:25:37.266Z,8.93
2023-04-07T09:26:37.367Z,8.93
2023-04-07T09:27:37.205Z,8.93
2023-04-07T09:28:37.287Z,8.88
2023-04-07T09:29:37.171Z,8.88
2023-04-07T09:30:37.188Z,8.88
2023-04-07T09:31:37.207Z,8.88
2023-04-07T09:32:59.561Z,8.88
2023-04-07T09:33:37.192Z,8.86
2023-04-07T09:34:39.047Z,8.85
2023-04-07T09:35:37.349Z,8.83
2023-04-07T09:36:37.252Z,8.83
2023-04-07T09:37:37.172Z,8.86
2023-04-07T09:38:37.284Z,8.88
2023-04-07T09:39:37.213Z,8.91
2023-04-07T09:40:37.073Z,8.89
2023-04-07T09:41:37.196Z,8.91
2023-04-07T09:42:37.052Z,8.89
2023-04-07T09:43:37.034Z,8.91
2023-04-07T09:44:37.008Z,8.93
2023-04-07T09:45:37.614Z,8.93
2023-04-07T09:46:37.126Z,8.96
2023-04-07T09:47:37.009Z,8.97
2023-04-07T09:48:36.938Z,8.96
2023-04-07T09:50:00.578Z,8.93
2023-04-07T09:52:01.555Z,8.96
2023-04-07T09:52:59.303Z,8.97
2023-04-07T09:53:59.297Z,8.97
2023-04-07T09:54:59.282Z,9.00
2023-04-07T09:55:59.330Z,8.98
2023-04-07T09:57:09.309Z,8.97
2023-04-07T09:58:10.663Z,8.98
2023-04-07T09:59:08.451Z,9.00
2023-04-07T10:00:09.189Z,9.03
2023-04-07T10:00:59.199Z,9.03
2023-04-07T10:02:01.542Z,9.03
2023-04-07T10:03:12.193Z,9.00
2023-04-07T10:04:10.286Z,9.01
2023-04-07T10:05:03.468Z,9.06
2023-04-07T10:06:00.171Z,9.06
2023-04-07T10:07:00.190Z,9.03
2023-04-07T10:07:59.047Z,9.00
2023-04-07T10:08:59.309Z,9.04
2023-04-07T10:09:59.051Z,9.03
2023-04-07T10:10:59.011Z,9.00
2023-04-07T10:11:59.236Z,9.01
2023-04-07T10:12:59.121Z,9.01
2023-04-07T10:13:59.042Z,9.04
2023-04-07T10:16:19.038Z,9.03
2023-04-07T10:17:19.041Z,9.00
2023-04-07T10:18:19.251Z,9.01
2023-04-07T10:19:34.190Z,9.00
2023-04-07T10:20:18.919Z,9.00
2023-04-07T10:21:27.904Z,8.98
2023-04-07T10:22:18.888Z,9.00
2023-04-07T10:23:18.783Z,9.01
2023-04-07T10:24:18.866Z,8.97
2023-04-07T10:25:18.846Z,8.98
2023-04-07T10:26:18.812Z,9.00
2023-04-07T10:27:18.820Z,8.98
2023-04-07T10:28:27.404Z,8.94
2023-04-07T10:29:18.805Z,8.96
2023-04-07T10:30:18.734Z,8.96
2023-04-07T10:31:18.929Z,8.96
2023-04-07T10:32:18.796Z,8.98
2023-04-07T10:33:18.785Z,8.98
2023-04-07T10:34:18.678Z,8.94
2023-04-07T10:35:18.871Z,8.93
2023-04-07T10:36:18.662Z,8.94
2023-04-07T10:37:27.512Z,8.96
2023-04-07T10:38:18.722Z,9.00
2023-04-07T10:39:18.634Z,9.01
2023-04-07T10:40:18.803Z,9.03
2023-04-07T10:41:18.685Z,9.00
2023-04-07T10:42:26.759Z,8.98
2023-04-07T10:43:27.297Z,8.96
2023-04-07T10:44:18.561Z,8.97
2023-04-07T10:45:18.605Z,8.98
2023-04-07T10:46:18.557Z,9.00
2023-04-07T10:47:18.626Z,8.98
2023-04-07T10:48:18.605Z,8.96
2023-04-07T10:49:19.176Z,8.94
2023-04-07T10:50:18.487Z,8.97
2023-04-07T10:51:18.538Z,8.97
2023-04-07T10:52:18.525Z,9.00
2023-04-07T10:53:18.495Z,9.01
2023-04-07T10:54:18.415Z,9.04
2023-04-07T10:55:18.374Z,9.04
2023-04-07T10:56:28.174Z,9.04
2023-04-07T10:57:18.396Z,9.04
2023-04-07T10:58:18.431Z,9.04
2023-04-07T10:59:18.405Z,9.04
2023-04-07T11:00:18.421Z,9.06
2023-04-07T11:01:18.422Z,9.08
2023-04-07T11:02:18.500Z,9.10
2023-04-07T11:03:18.509Z,9.13
2023-04-07T11:04:18.387Z,9.10
2023-04-07T11:05:18.257Z,9.10
2023-04-07T11:06:18.297Z,9.04
2023-04-07T11:07:18.273Z,9.03
2023-04-07T11:08:18.270Z,9.00
2023-04-07T11:09:18.198Z,9.00
2023-04-07T11:10:18.248Z,9.01
2023-04-07T11:11:18.187Z,9.04
2023-04-07T11:12:18.219Z,9.01
2023-04-07T11:13:18.349Z,8.98
2023-04-07T11:14:19.242Z,9.00
2023-04-07T11:15:18.240Z,9.01
2023-04-07T11:16:18.213Z,9.01
2023-04-07T11:17:18.152Z,8.98
2023-04-07T11:18:18.164Z,8.97
2023-04-07T11:19:18.146Z,8.97
2023-04-07T11:20:18.085Z,8.98
2023-04-07T11:21:18.084Z,9.04
2023-04-07T11:22:29.414Z,9.08
2023-04-07T11:23:19.136Z,9.08
2023-04-07T11:24:18.037Z,9.10
2023-04-07T11:25:18.120Z,9.10
2023-04-07T11:26:18.059Z,9.10
2023-04-07T11:27:18.028Z,9.12
2023-04-07T11:28:18.059Z,9.15
2023-04-07T11:29:18.654Z,9.17
2023-04-07T11:30:18.327Z,9.17
2023-04-07T11:31:18.034Z,9.16
2023-04-07T11:32:18.048Z,9.16
2023-04-07T11:33:18.137Z,9.15
2023-04-07T11:34:18.011Z,9.13
2023-04-07T11:35:17.948Z,9.13
2023-04-07T11:36:17.996Z,9.16
2023-04-07T11:37:17.919Z,9.13
2023-04-07T11:38:17.869Z,9.10
2023-04-07T11:39:17.881Z,9.06
2023-04-07T11:40:17.852Z,9.03
2023-04-07T11:41:17.851Z,9.01
2023-04-07T11:42:17.809Z,9.01
2023-04-07T11:43:17.823Z,9.00
2023-04-07T11:44:17.760Z,9.00
2023-04-07T11:45:17.777Z,9.03
2023-04-07T11:46:17.966Z,9.03
2023-04-07T11:47:17.835Z,9.04
2023-04-07T11:48:17.793Z,9.06
2023-04-07T11:49:17.919Z,9.10
2023-04-07T11:50:17.729Z,9.13
2023-04-07T11:51:17.729Z,9.17
2023-04-07T11:52:17.801Z,9.19
2023-04-07T11:53:17.785Z,9.22
2023-04-07T11:54:17.688Z,9.24
2023-04-07T11:55:18.721Z,9.26
2023-04-07T11:56:17.638Z,9.31
2023-04-07T11:57:17.858Z,9.37
2023-04-07T11:58:29.715Z,9.37
2023-04-07T11:59:17.566Z,9.40
2023-04-07T12:00:17.595Z,9.42
2023-04-07T12:01:17.579Z,9.45
2023-04-07T12:02:17.653Z,9.50
2023-04-07T12:03:17.719Z,9.56
2023-04-07T12:04:17.852Z,9.62
2023-04-07T12:05:17.665Z,9.67
2023-04-07T12:06:17.593Z,9.68
2023-04-07T12:07:17.466Z,9.70
2023-04-07T12:08:17.481Z,9.73
2023-04-07T12:09:17.550Z,9.75
2023-04-07T12:10:17.503Z,9.80
2023-04-07T12:11:17.477Z,9.86
2023-04-07T12:12:17.459Z,9.92
2023-04-07T12:13:17.644Z,9.95
2023-04-07T12:14:17.532Z,9.96
2023-04-07T12:15:17.433Z,9.96
2023-04-07T12:16:17.397Z,9.98
2023-04-07T12:17:17.398Z,9.99
2023-04-07T12:18:17.350Z,9.98
2023-04-07T12:19:17.439Z,9.95
2023-04-07T12:20:17.415Z,9.92
2023-04-07T12:21:17.486Z,9.93
2023-04-07T12:22:17.388Z,9.96
2023-04-07T12:23:17.301Z,10.01
2023-04-07T12:24:17.292Z,10.07
2023-04-07T12:25:17.314Z,10.11
2023-04-07T12:26:17.319Z,10.13
2023-04-07T12:27:17.216Z,10.14
2023-04-07T12:28:17.340Z,10.11
2023-04-07T12:29:17.216Z,10.09
2023-04-07T12:30:17.229Z,10.13
2023-04-07T12:31:17.372Z,10.14
2023-04-07T12:32:17.228Z,10.18
2023-04-07T12:33:17.222Z,10.25
2023-04-07T12:34:17.139Z,10.29
2023-04-07T12:35:17.200Z,10.29
2023-04-07T12:36:17.108Z,10.34
2023-04-07T12:37:17.079Z,10.36
2023-04-07T12:38:17.124Z,10.38
2023-04-07T12:39:17.073Z,10.39
2023-04-07T12:40:17.123Z,10.39
2023-04-07T12:41:17.033Z,10.35
2023-04-07T12:42:17.023Z,10.31
2023-04-07T12:43:17.057Z,10.31
2023-04-07T12:44:17.172Z,10.32
2023-04-07T12:45:17.054Z,10.26
2023-04-07T12:46:17.141Z,10.22
2023-04-07T12:47:17.027Z,10.17
2023-04-07T12:48:16.980Z,10.14
2023-04-07T12:49:17.092Z,10.13
2023-04-07T12:50:16.974Z,10.13
2023-04-07T12:51:16.937Z,10.11
2023-04-07T12:52:16.982Z,10.11
2023-04-07T12:53:16.998Z,10.07
2023-04-07T12:54:17.028Z,10.04
2023-04-07T12:55:16.968Z,10.06
2023-04-07T12:56:16.928Z,10.07
2023-04-07T12:57:16.890Z,10.09
2023-04-07T12:58:16.797Z,10.10
2023-04-07T12:59:16.856Z,10.13
2023-04-07T13:00:16.858Z,10.13
2023-04-07T13:01:17.234Z,10.13
2023-04-07T13:02:17.094Z,10.09
2023-04-07T13:03:17.040Z,10.10
2023-04-07T13:04:16.978Z,10.14
2023-04-07T13:05:16.688Z,10.14
2023-04-07T13:06:16.774Z,10.13
2023-04-07T13:07:16.757Z,10.13
2023-04-07T13:08:16.739Z,10.10
2023-04-07T13:09:16.728Z,10.11
2023-04-07T13:10:16.693Z,10.17
2023-04-07T13:11:16.655Z,10.20
2023-04-07T13:12:16.663Z,10.24
2023-04-07T13:13:16.697Z,10.24
2023-04-07T13:14:16.642Z,10.20
2023-04-07T13:15:16.612Z,10.20
2023-04-07T13:16:16.571Z,10.22
2023-04-07T13:17:16.560Z,10.20
2023-04-07T13:18:16.594Z,10.20
2023-04-07T13:19:16.604Z,10.18